Time;durP1;ratioP1;P1;durP2;ratioP2;P2;SDS_P1;SDS_P2;PMS_P1;PMS_P2;Temp;Humidity;BMP_temperature;BMP_pressure;BME280_temperature;BME280_humidity;BME280_pressure;Samples;Min_cycle;Max_cycle;Signal;HPM_P1;HPM_P2
2021/07/09 00:01:57;;;;;;;16.00;10.15;;;;;;;22.63;66.94;100640.28;5043890;28;20043;-58
2021/07/09 00:04:24;;;;;;;15.68;10.80;;;;;;;22.72;66.53;100640.63;5071731;28;20032;-58
2021/07/09 00:06:51;;;;;;;15.43;11.10;;;;;;;22.70;66.67;100639.88;5073153;28;20067;-58
2021/07/09 00:09:18;;;;;;;18.08;10.85;;;;;;;22.72;67.03;100645.06;5063669;28;20060;-58
2021/07/09 00:11:50;;;;;;;21.58;11.50;;;;;;;22.40;67.47;100592.25;5063662;28;20363;-58
2021/07/09 00:14:18;;;;;;;18.02;10.52;;;;;;;22.75;66.61;100645.72;5063474;28;20043;-58
2021/07/09 00:16:46;;;;;;;20.65;11.48;;;;;;;22.67;67.19;100641.81;5053870;28;20063;-58
2021/07/09 00:19:12;;;;;;;18.10;11.27;;;;;;;22.69;66.93;100637.31;5043492;28;20053;-58
2021/07/09 00:21:39;;;;;;;15.45;10.98;;;;;;;22.65;67.11;100638.44;5043385;28;20053;-58
2021/07/09 00:24:06;;;;;;;17.17;11.50;;;;;;;22.66;67.29;100635.69;5043482;28;20053;-58
2021/07/09 00:26:32;;;;;;;19.33;11.30;;;;;;;22.66;67.41;100630.41;5050930;28;20071;-58
2021/07/09 00:28:58;;;;;;;17.15;11.48;;;;;;;22.65;67.17;100633.16;5063081;28;20049;-57
2021/07/09 00:31:26;;;;;;;17.77;11.07;;;;;;;22.64;67.14;100640.19;5045568;28;20067;-57
2021/07/09 00:33:52;;;;;;;15.32;11.10;;;;;;;22.61;67.39;100642.19;5063171;28;20045;-59
2021/07/09 00:36:18;;;;;;;17.85;11.60;;;;;;;22.54;67.14;100631.94;5057466;28;20060;-58
2021/07/09 00:38:44;;;;;;;19.02;11.65;;;;;;;22.58;66.93;100637.91;5058001;28;20029;-57
2021/07/09 00:41:11;;;;;;;15.88;10.85;;;;;;;22.54;67.22;100631.94;5062954;28;20064;-57
2021/07/09 00:43:37;;;;;;;17.77;11.02;;;;;;;22.55;67.05;100632.81;5062839;28;20306;-57
2021/07/09 00:46:03;;;;;;;17.27;11.82;;;;;;;22.56;67.20;100624.81;5062510;28;20075;-58
2021/07/09 00:48:29;;;;;;;17.83;11.10;;;;;;;22.53;67.28;100629.38;5062867;28;20218;-58
2021/07/09 00:51:08;;;;;;;22.23;11.57;;;;;;;22.22;67.51;100584.41;5062966;28;20036;-58
2021/07/09 00:53:37;;;;;;;16.05;10.20;;;;;;;22.52;67.25;100630.34;5062953;28;20049;-58
2021/07/09 00:56:03;;;;;;;16.40;11.15;;;;;;;22.49;67.17;100622.56;5059866;28;20072;-58
2021/07/09 00:58:30;;;;;;;19.98;10.88;;;;;;;22.51;66.94;100621.56;5042895;28;20045;-58
2021/07/09 01:00:56;;;;;;;15.63;10.43;;;;;;;22.52;67.00;100617.16;5042734;28;20048;-58
2021/07/09 01:03:22;;;;;;;14.95;10.55;;;;;;;22.48;66.99;100618.25;5053865;28;20099;-57
2021/07/09 01:05:49;;;;;;;16.95;10.60;;;;;;;22.46;66.78;100620.09;5081769;28;20048;-57
2021/07/09 01:08:15;;;;;;;17.92;11.00;;;;;;;22.45;67.13;100623.72;5062812;28;20069;-57
2021/07/09 01:10:42;;;;;;;16.75;10.95;;;;;;;22.44;66.76;100614.06;5062658;28;20063;-57
2021/07/09 01:13:08;;;;;;;15.63;10.75;;;;;;;22.42;66.83;100616.81;5062638;28;20269;-57
2021/07/09 01:15:35;;;;;;;13.73;10.23;;;;;;;22.41;66.56;100623.00;5062416;28;20110;-57
2021/07/09 01:18:02;;;;;;;14.32;9.63;;;;;;;22.39;66.98;100617.81;5043820;28;20041;-57
2021/07/09 01:20:28;;;;;;;18.38;10.35;;;;;;;22.32;67.12;100612.91;5042629;28;20326;-57
2021/07/09 01:22:56;;;;;;;16.35;9.60;;;;;;;21.99;67.64;100576.91;5042618;28;20049;-58
2021/07/09 01:25:27;;;;;;;18.95;10.75;;;;;;;22.20;68.09;100620.59;5042363;28;20060;-57
2021/07/09 01:28:06;;;;;;;16.30;10.30;;;;;;;21.90;68.68;100567.72;5059441;28;20041;-58
2021/07/09 01:30:34;;;;;;;15.85;11.02;;;;;;;21.93;68.26;100582.53;5062417;28;20059;-58
2021/07/09 01:33:00;;;;;;;15.88;10.38;;;;;;;22.20;68.66;100620.59;5062488;28;20055;-58
2021/07/09 01:35:27;;;;;;;13.55;11.02;;;;;;;22.22;68.35;100620.53;5062598;28;20056;-59
2021/07/09 01:38:00;;;;;;;14.48;11.32;;;;;;;22.14;69.92;100607.72;5062151;28;20055;-58
2021/07/09 01:40:28;;;;;;;16.27;10.80;;;;;;;22.19;68.74;100616.25;5062337;28;20060;-58
2021/07/09 01:42:54;;;;;;;19.05;11.82;;;;;;;22.09;68.94;100612.44;5062501;28;20056;-58
2021/07/09 01:45:21;;;;;;;19.15;12.10;;;;;;;22.14;69.51;100614.81;5062201;28;20041;-58
2021/07/09 01:47:47;;;;;;;16.35;10.75;;;;;;;22.15;68.91;100603.31;5046023;28;20334;-58
2021/07/09 01:50:13;;;;;;;17.45;11.27;;;;;;;22.07;70.05;100609.00;5046210;28;20356;-58
2021/07/09 01:52:39;;;;;;;18.63;11.70;;;;;;;22.12;69.74;100614.03;5046257;28;20014;-58
2021/07/09 01:55:06;;;;;;;19.38;11.65;;;;;;;22.16;69.24;100608.53;5046122;28;20021;-58
2021/07/09 01:57:32;;;;;;;16.92;11.30;;;;;;;22.17;69.49;100612.84;5059878;28;20246;-58
2021/07/09 02:00:06;;;;;;;16.33;11.00;;;;;;;22.16;70.05;100605.00;5066358;28;20059;-58
2021/07/09 02:02:32;;;;;;;20.20;12.20;;;;;;;22.10;69.81;100611.47;5066281;28;20333;-58
2021/07/09 02:04:58;;;;;;;22.48;11.50;;;;;;;22.05;70.15;100609.09;5084736;28;20020;-58
2021/07/09 02:07:25;;;;;;;18.75;12.02;;;;;;;22.12;70.30;100614.91;5060164;28;20063;-57
2021/07/09 02:09:54;;;;;;;18.17;10.98;;;;;;;22.14;70.43;100614.81;5085811;28;20040;-57
2021/07/09 02:12:23;;;;;;;19.38;11.75;;;;;;;22.23;69.50;100612.53;5086236;28;20052;-58
2021/07/09 02:14:50;;;;;;;15.07;11.52;;;;;;;22.19;70.13;100596.91;5085865;28;20048;-58
2021/07/09 02:17:19;;;;;;;18.27;12.48;;;;;;;21.90;70.34;100562.44;5074630;28;20053;-58
2021/07/09 02:19:48;;;;;;;15.70;11.50;;;;;;;22.18;70.55;100606.63;5065779;28;20064;-58
2021/07/09 02:22:15;;;;;;;16.70;12.30;;;;;;;22.10;71.21;100610.63;5065655;28;20048;-58
2021/07/09 02:24:44;;;;;;;21.83;11.02;;;;;;;22.19;70.92;100616.25;5065881;28;20056;-57
2021/07/09 02:27:10;;;;;;;20.52;11.45;;;;;;;22.20;70.70;100601.28;5075428;28;20347;-57
2021/07/09 02:29:36;;;;;;;18.77;12.52;;;;;;;22.31;70.58;100606.81;5085534;28;20372;-57
2021/07/09 02:32:06;;;;;;;15.82;11.10;;;;;;;22.33;70.34;100604.97;5085543;28;20050;-57
2021/07/09 02:34:33;;;;;;;18.60;11.73;;;;;;;22.45;70.25;100613.16;5085518;28;20052;-57
2021/07/09 02:36:59;;;;;;;16.42;12.02;;;;;;;22.44;70.84;100604.34;5076960;28;20242;-57
2021/07/09 02:39:25;;;;;;;18.25;11.98;;;;;;;22.54;70.24;100607.34;5065396;28;20052;-57
2021/07/09 02:41:55;;;;;;;18.83;12.10;;;;;;;22.57;70.53;100610.66;5065281;28;20060;-57
2021/07/09 02:44:22;;;;;;;17.10;11.50;;;;;;;22.66;69.92;100608.41;5065526;28;20368;-58
2021/07/09 02:46:49;;;;;;;18.67;12.27;;;;;;;22.66;70.12;100616.34;5071796;28;20063;-58
2021/07/09 02:49:15;;;;;;;16.17;11.90;;;;;;;22.73;70.07;100609.75;5085205;28;20059;-58
2021/07/09 02:51:41;;;;;;;18.45;12.32;;;;;;;22.81;69.55;100618.09;5090181;28;20240;-57
2021/07/09 02:54:07;;;;;;;19.10;11.57;;;;;;;22.87;70.11;100616.91;5105169;28;20054;-58
2021/07/09 02:56:33;;;;;;;22.20;12.63;;;;;;;22.91;70.13;100621.06;5101068;28;20043;-58
2021/07/09 02:58:59;;;;;;;21.05;13.00;;;;;;;23.03;69.08;100614.22;5085009;28;20044;-58
2021/07/09 03:01:25;;;;;;;19.20;13.18;;;;;;;23.05;69.51;100617.63;5084006;28;20186;-57
2021/07/09 03:03:52;;;;;;;16.42;12.25;;;;;;;23.09;69.46;100611.22;5094560;28;20051;-58
2021/07/09 03:06:22;;;;;;;19.27;12.52;;;;;;;22.91;69.86;100558.50;5102965;28;20055;-58
2021/07/09 03:08:48;;;;;;;20.13;12.75;;;;;;;23.23;69.31;100603.34;5068974;28;20311;-58
2021/07/09 03:11:15;;;;;;;21.15;12.48;;;;;;;23.35;69.01;100608.84;5064786;28;20040;-58
2021/07/09 03:13:41;;;;;;;21.25;11.70;;;;;;;23.39;68.61;100607.72;5064589;28;20048;-58
2021/07/09 03:16:06;;;;;;;24.58;13.57;;;;;;;23.48;68.15;100608.97;5064498;28;20341;-58
2021/07/09 03:18:32;;;;;;;17.80;10.73;;;;;;;23.55;67.61;100605.84;5044593;28;20025;-58
2021/07/09 03:20:58;;;;;;;23.67;12.35;;;;;;;23.66;67.06;100610.47;5044650;28;20409;-58
2021/07/09 03:23:24;;;;;;;21.85;12.00;;;;;;;23.69;65.73;100612.94;5044788;28;20056;-58
2021/07/09 03:25:50;;;;;;;21.20;11.95;;;;;;;23.79;65.70;100606.13;5044322;28;20036;-58
2021/07/09 03:28:16;;;;;;;24.05;11.55;;;;;;;23.91;65.53;100604.56;5061874;28;20341;-58
2021/07/09 03:30:43;;;;;;;20.20;10.95;;;;;;;23.95;65.40;100600.75;5064375;28;20317;-58
2021/07/09 03:33:10;;;;;;;26.55;12.50;;;;;;;24.12;64.42;100601.50;5064350;28;20060;-58
2021/07/09 03:35:36;;;;;;;18.52;11.25;;;;;;;24.24;63.71;100598.06;5063860;28;20052;-58
2021/07/09 03:38:03;;;;;;;18.50;10.10;;;;;;;24.50;62.08;100602.59;5064169;28;20057;-58
2021/07/09 03:40:28;;;;;;;15.90;10.15;;;;;;;25.06;60.23;100605.16;5064387;28;20063;-56
2021/07/09 03:42:54;;;;;;;22.08;11.18;;;;;;;25.04;60.22;100607.91;5063954;28;20025;-57
2021/07/09 03:45:20;;;;;;;21.45;11.07;;;;;;;25.10;60.40;100604.81;5064103;28;20044;-57
2021/07/09 03:47:47;;;;;;;18.83;11.05;;;;;;;25.16;59.88;100606.22;5050805;28;20045;-58
2021/07/09 03:50:14;;;;;;;16.42;10.00;;;;;;;25.11;59.56;100600.34;5043939;28;20247;-58
2021/07/09 03:52:40;;;;;;;18.83;9.65;;;;;;;25.23;59.25;100593.41;5060434;28;20044;-58
2021/07/09 03:55:07;;;;;;;17.20;10.07;;;;;;;25.19;59.47;100605.16;5063918;28;20033;-58
2021/07/09 03:57:33;;;;;;;20.13;9.73;;;;;;;25.25;59.29;100602.91;5063924;28;20333;-58
2021/07/09 03:59:59;;;;;;;19.13;10.63;;;;;;;25.27;58.96;100602.84;5063599;28;20040;-57
2021/07/09 04:02:25;;;;;;;22.27;11.20;;;;;;;25.26;58.36;100601.13;5045794;28;20049;-58
2021/07/09 04:04:51;;;;;;;24.60;11.13;;;;;;;25.32;58.40;100604.25;5081381;28;20031;-58
2021/07/09 04:07:17;;;;;;;19.48;11.25;;;;;;;25.33;58.55;100597.97;5074507;28;20369;-57
2021/07/09 04:09:42;;;;;;;20.15;10.82;;;;;;;25.32;58.01;100588.34;5063359;28;20371;-57
2021/07/09 04:12:08;;;;;;;20.15;11.20;;;;;;;25.41;58.51;100591.28;5063490;28;20210;-57
2021/07/09 04:14:34;;;;;;;20.98;10.30;;;;;;;25.35;58.06;100591.72;5063540;28;20032;-57
2021/07/09 04:17:00;;;;;;;16.20;9.90;;;;;;;25.43;57.46;100592.06;5057461;28;20306;-56
2021/07/09 04:19:27;;;;;;;13.98;9.32;;;;;;;25.52;57.65;100595.88;5043380;28;20056;-58
2021/07/09 04:21:53;;;;;;;14.48;9.02;;;;;;;25.46;57.56;100590.03;5043512;28;20025;-58
2021/07/09 04:24:19;;;;;;;18.65;9.80;;;;;;;25.48;57.42;100588.13;5043391;28;20029;-58
2021/07/09 04:26:45;;;;;;;19.50;9.60;;;;;;;25.62;57.66;100591.59;5046753;28;20029;-58
2021/07/09 04:29:10;;;;;;;16.33;9.40;;;;;;;25.64;57.72;100587.06;5063211;28;20021;-59
2021/07/09 04:31:36;;;;;;;15.40;8.85;;;;;;;25.72;57.36;100592.66;5045463;28;20025;-59
2021/07/09 04:34:02;;;;;;;18.88;8.57;;;;;;;25.77;57.48;100595.00;5063081;28;20025;-59
2021/07/09 04:36:28;;;;;;;20.70;7.45;;;;;;;25.83;55.59;100587.44;5061903;28;20024;-59
2021/07/09 04:38:54;;;;;;;11.73;6.60;;;;;;;25.86;55.03;100591.69;5059814;28;20242;-58
2021/07/09 04:41:20;;;;;;;12.07;6.72;;;;;;;25.86;54.60;100581.06;5063199;28;20191;-57
2021/07/09 04:43:45;;;;;;;14.10;7.03;;;;;;;26.05;54.85;100579.78;5062880;28;20025;-58
2021/07/09 04:46:11;;;;;;;13.77;7.07;;;;;;;26.10;54.83;100575.00;5062881;28;20017;-58
2021/07/09 04:48:37;;;;;;;10.15;6.60;;;;;;;26.18;54.26;100570.81;5062541;28;20192;-57
2021/07/09 04:51:03;;;;;;;12.80;6.47;;;;;;;26.31;54.79;100573.41;5062790;28;20104;-59
2021/07/09 04:53:32;;;;;;;13.88;6.72;;;;;;;26.30;53.98;100569.06;5062802;28;20025;-59
2021/07/09 04:55:58;;;;;;;9.75;6.40;;;;;;;26.46;54.86;100570.59;5062741;28;20056;-59
2021/07/09 04:58:24;;;;;;;10.82;6.85;;;;;;;26.41;55.44;100562.09;5046099;28;20337;-59
2021/07/09 05:00:50;;;;;;;17.63;7.07;;;;;;;26.46;56.73;100568.75;5042636;28;20023;-60
2021/07/09 05:03:16;;;;;;;14.00;6.85;;;;;;;26.63;54.91;100570.16;5052112;28;20051;-59
2021/07/09 05:05:42;;;;;;;10.52;6.93;;;;;;;26.70;54.53;100576.75;5082671;28;20024;-58
2021/07/09 05:08:07;;;;;;;16.45;7.70;;;;;;;26.77;55.92;100571.00;5067660;28;20099;-58
2021/07/09 05:10:33;;;;;;;11.20;6.63;;;;;;;26.87;53.44;100569.31;5062717;28;20222;-59
2021/07/09 05:12:59;;;;;;;10.10;6.30;;;;;;;27.05;53.59;100577.72;5062195;28;20029;-59
2021/07/09 05:15:25;;;;;;;10.38;6.10;;;;;;;27.05;51.61;100567.09;5061374;28;20099;-59
2021/07/09 05:17:51;;;;;;;7.80;5.68;;;;;;;27.14;51.16;100569.00;5062163;28;20045;-59
2021/07/09 05:20:17;;;;;;;9.60;5.32;;;;;;;27.24;50.72;100563.84;5062278;28;20083;-58
2021/07/09 05:22:43;;;;;;;9.80;5.68;;;;;;;27.36;51.07;100559.41;5061867;28;20021;-59
2021/07/09 05:25:10;;;;;;;9.27;5.57;;;;;;;27.59;51.26;100567.38;5062672;28;20048;-57
2021/07/09 05:27:36;;;;;;;9.35;5.20;;;;;;;27.66;49.66;100563.25;5079408;28;20061;-58
2021/07/09 05:30:04;;;;;;;7.68;5.63;;;;;;;27.79;50.56;100563.13;5081781;28;20017;-58
2021/07/09 05:32:30;;;;;;;8.27;5.07;;;;;;;27.85;50.88;100562.66;5081863;28;20044;-58
2021/07/09 05:34:56;;;;;;;11.98;5.47;;;;;;;27.90;50.47;100564.00;5081936;28;20023;-58
2021/07/09 05:37:23;;;;;;;9.77;5.60;;;;;;;27.91;49.53;100562.16;5079233;28;20052;-58
2021/07/09 05:39:49;;;;;;;7.60;5.75;;;;;;;27.98;49.03;100562.53;5079178;28;20054;-58
2021/07/09 05:42:15;;;;;;;10.30;5.85;;;;;;;28.00;48.99;100560.59;5081641;28;20044;-59
2021/07/09 05:44:42;;;;;;;9.23;6.15;;;;;;;27.99;48.51;100557.09;5063813;28;20051;-59
2021/07/09 05:47:09;;;;;;;12.30;6.68;;;;;;;28.01;49.06;100555.16;5079294;28;20048;-58
2021/07/09 05:49:35;;;;;;;9.00;5.95;;;;;;;28.11;49.29;100559.75;5081400;28;20036;-59
2021/07/09 05:52:01;;;;;;;9.38;5.88;;;;;;;28.15;49.35;100547.88;5081218;28;20015;-59
2021/07/09 05:54:27;;;;;;;11.50;6.22;;;;;;;28.21;48.43;100544.69;5082011;28;20325;-59
2021/07/09 05:56:53;;;;;;;9.05;5.82;;;;;;;28.24;47.06;100557.75;5080194;28;20021;-59
2021/07/09 05:59:19;;;;;;;11.30;6.20;;;;;;;28.45;47.77;100555.13;5081453;28;20024;-59
2021/07/09 06:01:45;;;;;;;14.23;6.22;;;;;;;28.46;47.93;100539.97;5081784;28;20043;-56
2021/07/09 06:04:11;;;;;;;10.05;5.80;;;;;;;28.45;47.94;100555.13;5081685;28;20067;-58
2021/07/09 06:06:37;;;;;;;13.18;6.18;;;;;;;28.66;48.03;100547.22;5080913;28;20048;-57
2021/07/09 06:09:03;;;;;;;8.95;5.88;;;;;;;28.80;47.53;100547.84;5080515;28;20076;-57
2021/07/09 06:11:30;;;;;;;9.25;5.60;;;;;;;28.89;47.92;100545.25;5081552;28;20013;-58
2021/07/09 06:13:56;;;;;;;12.65;5.60;;;;;;;28.96;44.81;100550.91;5063594;28;20344;-58
2021/07/09 06:16:22;;;;;;;8.73;5.38;;;;;;;29.09;45.98;100548.88;5081414;28;20070;-58
2021/07/09 06:18:49;;;;;;;11.10;5.57;;;;;;;29.09;43.76;100558.72;5075817;28;20059;-58
2021/07/09 06:21:16;;;;;;;7.18;5.28;;;;;;;29.18;43.93;100547.25;5081926;28;20056;-59
2021/07/09 06:23:41;;;;;;;7.60;5.43;;;;;;;29.16;43.92;100548.34;5081925;28;20048;-58
2021/07/09 06:26:09;;;;;;;7.13;5.63;;;;;;;29.17;43.04;100542.88;5081945;28;20372;-58
2021/07/09 06:28:35;;;;;;;7.07;5.43;;;;;;;29.21;43.65;100546.13;5065503;28;20040;-57
2021/07/09 06:31:01;;;;;;;6.38;5.20;;;;;;;29.24;42.97;100540.56;5061757;28;20086;-58
2021/07/09 06:33:27;;;;;;;8.88;5.60;;;;;;;28.99;42.58;100515.09;5061680;28;20048;-57
2021/07/09 06:35:53;;;;;;;13.70;6.28;;;;;;;28.95;43.33;100529.72;5069226;28;20021;-57
2021/07/09 06:38:18;;;;;;;7.22;6.00;;;;;;;28.85;45.09;100532.31;5071589;28;20025;-57
2021/07/09 06:40:45;;;;;;;10.05;5.68;;;;;;;28.62;46.05;100540.44;5065343;28;20035;-57
2021/07/09 06:43:12;;;;;;;8.77;6.43;;;;;;;28.62;42.77;100543.09;5065330;28;20060;-58
2021/07/09 06:45:41;;;;;;;7.53;5.43;;;;;;;28.62;45.46;100535.09;5065222;28;20059;-59
2021/07/09 06:48:07;;;;;;;8.02;5.68;;;;;;;28.35;46.62;100531.06;5064946;28;20052;-57
2021/07/09 06:50:35;;;;;;;8.30;5.65;;;;;;;28.40;44.90;100488.91;5065268;28;20056;-57
2021/07/09 06:53:02;;;;;;;8.65;5.88;;;;;;;28.45;46.48;100532.94;5065062;28;20247;-57
2021/07/09 06:55:29;;;;;;;9.23;5.53;;;;;;;28.75;45.79;100526.91;5065176;28;20094;-57
2021/07/09 06:57:54;;;;;;;8.10;5.80;;;;;;;28.76;42.94;100533.94;5055299;28;20064;-58
2021/07/09 07:00:20;;;;;;;8.20;5.88;;;;;;;28.96;44.17;100534.91;5045104;28;20025;-58
2021/07/09 07:02:47;;;;;;;8.45;6.03;;;;;;;29.01;44.84;100539.84;5046216;28;20021;-58
2021/07/09 07:05:14;;;;;;;8.07;6.28;;;;;;;29.02;44.38;100539.72;5085139;28;20048;-59
2021/07/09 07:07:40;;;;;;;8.48;6.30;;;;;;;29.18;44.72;100531.22;5069440;28;20061;-57
2021/07/09 07:10:08;;;;;;;7.63;6.05;;;;;;;29.31;43.36;100535.53;5044717;28;20243;-58
2021/07/09 07:12:34;;;;;;;9.23;5.85;;;;;;;29.20;42.54;100533.75;5044818;28;20049;-58
2021/07/09 07:15:01;;;;;;;7.15;5.85;;;;;;;29.20;42.44;100539.09;5044727;28;20044;-58
2021/07/09 07:17:28;;;;;;;7.25;5.43;;;;;;;28.99;43.88;100536.44;5050288;28;20341;-58
2021/07/09 07:19:54;;;;;;;10.93;6.03;;;;;;;29.01;43.10;100535.34;5064783;28;20059;-58
2021/07/09 07:22:20;;;;;;;8.85;5.95;;;;;;;29.01;42.74;100532.69;5046802;28;20017;-58
2021/07/09 07:24:49;;;;;;;10.07;5.68;;;;;;;29.34;42.84;100536.09;5064557;28;20112;-57
2021/07/09 07:27:16;;;;;;;6.97;6.28;;;;;;;29.43;43.66;100526.44;5060676;28;20282;-57
2021/07/09 07:29:43;;;;;;;8.40;5.55;;;;;;;29.46;42.40;100531.53;5060508;28;20079;-57
2021/07/09 07:32:09;;;;;;;8.85;5.97;;;;;;;29.49;42.61;100528.59;5072786;28;20250;-58
2021/07/09 07:34:35;;;;;;;12.30;6.00;;;;;;;29.52;41.46;100532.81;5084355;28;20373;-58
2021/07/09 07:37:00;;;;;;;8.18;6.25;;;;;;;29.53;41.20;100534.50;5082819;28;20314;-58
2021/07/09 07:39:26;;;;;;;7.57;6.18;;;;;;;29.53;41.22;100535.34;5064284;28;20035;-58
2021/07/09 07:41:52;;;;;;;8.48;6.35;;;;;;;29.49;42.78;100539.28;5064050;28;20017;-58
2021/07/09 07:44:18;;;;;;;8.35;6.00;;;;;;;29.51;43.89;100531.13;5063955;28;20097;-58
2021/07/09 07:46:48;;;;;;;8.52;6.03;;;;;;;28.98;44.55;100518.78;5063508;28;20025;-58
2021/07/09 07:49:14;;;;;;;8.02;6.20;;;;;;;29.06;44.15;100533.16;5044408;28;20338;-58
2021/07/09 07:51:40;;;;;;;9.07;5.82;;;;;;;29.38;44.18;100524.19;5043906;28;20261;-58
2021/07/09 07:54:06;;;;;;;7.65;5.93;;;;;;;29.43;43.71;100519.28;5043940;28;20026;-58
2021/07/09 07:56:31;;;;;;;7.88;6.20;;;;;;;29.35;43.91;100520.97;5043827;28;20051;-58
2021/07/09 07:58:57;;;;;;;7.72;5.60;;;;;;;29.66;42.41;100512.88;5060775;28;20268;-58
2021/07/09 08:01:25;;;;;;;8.40;6.28;;;;;;;29.79;42.21;100518.84;5063840;28;20021;-58
2021/07/09 08:03:51;;;;;;;6.80;5.97;;;;;;;30.00;41.61;100512.56;5073179;28;20047;-58
2021/07/09 08:06:17;;;;;;;7.53;5.88;;;;;;;30.04;41.89;100511.31;5083929;28;20029;-58
2021/07/09 08:08:43;;;;;;;8.77;6.18;;;;;;;29.45;43.14;100511.16;5068397;28;20056;-57
2021/07/09 08:11:10;;;;;;;8.18;6.13;;;;;;;29.74;42.21;100511.25;5063693;28;20348;-57
2021/07/09 08:13:35;;;;;;;9.32;6.38;;;;;;;29.70;42.73;100515.19;5069061;28;20264;-57
2021/07/09 08:16:01;;;;;;;8.20;6.28;;;;;;;29.81;42.72;100508.03;5082962;28;20024;-58
2021/07/09 08:18:27;;;;;;;6.28;5.57;;;;;;;29.80;41.20;100515.19;5064328;28;20263;-59
2021/07/09 08:20:53;;;;;;;8.65;5.85;;;;;;;29.83;41.31;100504.28;5082957;28;20022;-58
2021/07/09 08:23:19;;;;;;;8.40;6.57;;;;;;;29.95;40.24;100511.16;5083011;28;20191;-59
2021/07/09 08:25:45;;;;;;;9.52;5.75;;;;;;;30.03;41.27;100517.63;5083462;28;20020;-58
2021/07/09 08:28:14;;;;;;;11.90;5.75;;;;;;;29.98;41.46;100498.53;5073113;28;20029;-59
2021/07/09 08:30:41;;;;;;;8.20;6.47;;;;;;;30.11;41.60;100504.44;5063198;28;20344;-57
2021/07/09 08:33:07;;;;;;;9.57;6.32;;;;;;;30.16;40.58;100496.84;5063377;28;20049;-57
2021/07/09 08:35:33;;;;;;;12.25;6.32;;;;;;;30.09;42.03;100504.56;5063210;28;20040;-57
2021/07/09 08:37:59;;;;;;;7.93;6.93;;;;;;;30.08;41.86;100497.53;5063012;28;20372;-57
2021/07/09 08:40:25;;;;;;;12.73;6.47;;;;;;;30.03;42.34;100499.78;5073410;28;20028;-57
2021/07/09 08:42:51;;;;;;;10.80;6.60;;;;;;;29.84;43.10;100494.41;5048364;28;20211;-57
2021/07/09 08:45:16;;;;;;;7.68;6.53;;;;;;;30.18;41.80;100489.53;5045761;28;20032;-58
2021/07/09 08:47:43;;;;;;;13.60;6.43;;;;;;;29.98;41.87;100491.34;5043072;28;20056;-58
2021/07/09 08:50:11;;;;;;;9.73;6.43;;;;;;;29.69;42.49;100465.41;5055792;28;20044;-57
2021/07/09 08:52:37;;;;;;;9.60;6.47;;;;;;;29.56;42.75;100471.00;5061675;28;20044;-58
2021/07/09 08:55:05;;;;;;;6.90;6.28;;;;;;;29.34;42.74;100449.88;5048612;28;20395;-57
2021/07/09 08:57:31;;;;;;;9.45;6.43;;;;;;;30.00;41.71;100467.16;5056037;28;20063;-58
2021/07/09 08:59:57;;;;;;;9.13;6.18;;;;;;;30.27;40.54;100471.78;5050732;28;20051;-58
2021/07/09 09:02:27;;;;;;;8.15;5.82;;;;;;;30.41;41.38;100481.22;5062913;28;20025;-58
2021/07/09 09:04:53;;;;;;;7.88;6.43;;;;;;;30.38;41.79;100468.13;5080192;28;20060;-57
2021/07/09 09:07:19;;;;;;;11.15;6.28;;;;;;;30.58;39.33;100467.13;5080285;28;20063;-57
2021/07/09 09:09:45;;;;;;;7.88;6.22;;;;;;;30.36;39.98;100470.94;5065762;28;20347;-56
2021/07/09 09:12:14;;;;;;;8.43;6.40;;;;;;;30.34;38.69;100424.78;5076185;28;20245;-57
2021/07/09 09:14:48;;;;;;;7.85;6.13;;;;;;;30.64;40.21;100460.38;5075631;28;20103;-58
2021/07/09 09:17:37;;;;;;;7.70;6.47;;;;;;;30.81;39.51;100459.63;5065800;28;20061;-57
2021/07/09 09:20:07;;;;;;;10.20;6.55;;;;;;;30.97;38.50;100467.03;5077611;28;20043;-57
2021/07/09 09:22:38;;;;;;;11.48;7.80;;;;;;;31.08;39.07;100462.53;5075031;28;20084;-57
2021/07/09 09:25:09;;;;;;;7.65;5.88;;;;;;;31.08;38.88;100463.34;5080549;28;20036;-57
2021/07/09 09:27:34;;;;;;;7.90;5.95;;;;;;;30.59;40.77;100466.16;5075635;28;20043;-57
2021/07/09 09:30:11;;;;;;;13.05;6.53;;;;;;;30.90;39.38;100473.09;5082079;28;20095;-57
2021/07/09 09:32:48;;;;;;;9.52;6.85;;;;;;;30.99;38.71;100464.22;5078423;28;20067;-57
2021/07/09 09:35:26;;;;;;;7.25;6.03;;;;;;;31.17;39.53;100452.75;5082362;28;20047;-57
2021/07/09 09:37:55;;;;;;;8.63;5.90;;;;;;;31.17;39.43;100463.47;5076539;28;20052;-58
2021/07/09 09:40:23;;;;;;;9.82;6.47;;;;;;;31.18;39.32;100457.13;5072203;28;20071;-56
2021/07/09 09:42:50;;;;;;;9.25;6.40;;;;;;;30.80;39.96;100454.44;5082052;28;20071;-56
2021/07/09 09:45:25;;;;;;;10.40;6.22;;;;;;;31.00;39.77;100460.56;5082138;28;20052;-57
2021/07/09 09:47:51;;;;;;;8.13;6.35;;;;;;;31.06;38.84;100451.97;5077178;28;20075;-58
2021/07/09 09:50:19;;;;;;;9.60;7.20;;;;;;;30.83;37.62;100410.47;5061960;28;20055;-56
2021/07/09 09:52:48;;;;;;;6.63;5.95;;;;;;;31.07;38.37;100439.41;5067910;28;20047;-57
2021/07/09 09:55:22;;;;;;;9.45;6.78;;;;;;;30.94;38.57;100434.38;5081978;28;20048;-58
2021/07/09 09:58:06;;;;;;;6.70;6.00;;;;;;;31.03;37.51;100438.06;5077531;28;20337;-56
2021/07/09 10:00:32;;;;;;;9.63;6.43;;;;;;;31.12;37.42;100435.31;5062027;28;20048;-57
2021/07/09 10:02:58;;;;;;;8.15;6.18;;;;;;;31.12;38.14;100419.25;5064254;28;20372;-56
2021/07/09 10:05:24;;;;;;;10.40;6.15;;;;;;;30.61;40.51;100431.25;5082046;28;20329;-57
2021/07/09 10:07:53;;;;;;;9.52;5.90;;;;;;;30.99;39.85;100432.13;5032738;28;20056;-56
2021/07/09 10:10:20;;;;;;;8.05;5.78;;;;;;;30.88;40.25;100424.28;5082659;28;20052;-56
2021/07/09 10:12:50;;;;;;;7.22;6.53;;;;;;;30.41;39.89;100380.50;5068721;28;20056;-56
2021/07/09 10:15:16;;;;;;;6.88;6.10;;;;;;;30.90;37.20;100425.81;5083891;28;20040;-57
2021/07/09 10:17:48;;;;;;;9.02;6.22;;;;;;;30.76;36.98;100387.00;5085751;28;20234;-56
2021/07/09 10:20:17;;;;;;;8.27;6.05;;;;;;;30.92;39.23;100410.44;5096099;28;20276;-58
2021/07/09 10:22:46;;;;;;;8.30;5.80;;;;;;;30.95;37.74;100409.31;5105241;28;20089;-57
2021/07/09 10:25:15;;;;;;;8.35;6.60;;;;;;;31.12;38.94;100416.56;5089527;28;20286;-57
2021/07/09 10:27:44;;;;;;;7.82;6.07;;;;;;;31.12;37.34;100400.50;5064100;28;20336;-57
2021/07/09 10:30:11;;;;;;;8.45;6.47;;;;;;;31.18;36.78;100392.91;5064734;28;20056;-55
2021/07/09 10:32:38;;;;;;;8.55;6.25;;;;;;;31.14;36.80;100403.91;5067885;28;20048;-56
2021/07/09 10:35:06;;;;;;;10.02;6.35;;;;;;;30.59;39.59;100371.72;5076052;28;20056;-56
2021/07/09 10:37:33;;;;;;;9.27;6.00;;;;;;;30.95;38.13;100394.09;5083944;28;20055;-57
2021/07/09 10:40:12;;;;;;;9.15;6.22;;;;;;;31.03;37.92;100395.25;5065378;28;20338;-56
2021/07/09 10:42:40;;;;;;;8.02;6.32;;;;;;;30.88;37.49;100347.53;5065712;28;20063;-56
2021/07/09 10:45:09;;;;;;;8.60;5.82;;;;;;;31.10;37.88;100373.06;5073798;28;20051;-56
2021/07/09 10:47:39;;;;;;;9.55;6.20;;;;;;;30.90;38.35;100339.34;5069906;28;20059;-56
2021/07/09 10:50:10;;;;;;;9.35;5.82;;;;;;;30.98;37.54;100352.81;5078654;28;20060;-56
2021/07/09 10:52:48;;;;;;;6.78;5.85;;;;;;;31.15;37.70;100372.63;5066364;28;20080;-56
2021/07/09 10:55:26;;;;;;;6.70;5.50;;;;;;;31.20;38.50;100378.38;5077574;28;20044;-56
2021/07/09 10:58:07;;;;;;;6.32;5.72;;;;;;;31.02;36.85;100380.16;5079073;28;20067;-56
2021/07/09 11:00:45;;;;;;;7.28;6.07;;;;;;;31.04;37.85;100368.34;5065072;28;20053;-56
2021/07/09 11:03:21;;;;;;;9.77;6.45;;;;;;;30.65;38.73;100365.78;5065170;28;20060;-57
2021/07/09 11:05:49;;;;;;;9.27;5.88;;;;;;;31.02;36.52;100369.47;5066502;28;20329;-56
2021/07/09 11:08:40;;;;;;;6.95;5.78;;;;;;;30.86;38.42;100362.06;5053607;28;20353;-56
2021/07/09 11:11:11;;;;;;;11.02;6.07;;;;;;;30.62;38.86;100372.28;5039904;28;20258;-56
2021/07/09 11:13:40;;;;;;;10.27;5.75;;;;;;;30.95;36.70;100367.34;5027430;28;20049;-57
2021/07/09 11:16:24;;;;;;;7.10;5.70;;;;;;;31.07;36.39;100365.34;5051311;28;20376;-57
2021/07/09 11:19:07;;;;;;;6.97;5.32;;;;;;;31.08;37.39;100367.00;5039517;28;20063;-57